KCWN

Cheyenne Mountain Airport

Cheyenne Mountain, Colorado, USA
METAR KCWN 191326Z AUTO 18007KT 10SM -SHSN CLR 00/M16 A3011 RMK AO2 SNB1258E26SHSNB26 SLP133 $
Observed Flight Rules
Nov-19 @ 13:26 UTC (2 hours ago) Visual Flight Rules
Wind Visibility Clouds Conditions
180° at 7 knots 10 miles
  • Clear skies
  • Light Snow
Temperatures Readings
Current 0°C / 32°F
Dewpoint -16°C / 3°F
Humidity 29%
Altimeter 30.11" Hg
Pressure 1013.3 hPa
Elevation 2040
METAR KCWN 191326Z AUTO 18007KT 10SM -SHSN CLR 00/M16 A3011 RMK AO2 SNB1258E26SHSNB26 SLP133 $
Observed Flight Rules
Nov-19 @ 13:26 UTC
(2 hours ago)
VFR
Wind Visibility
180° at 7 knots 10 miles
Clouds
  • Clear skies
Conditions
  • Light Snow
Temperature Dewpoint
0°C / 32°F -16°C / 3°F
Humidity Altimeter Pressure
29% 30.11" Hg 1013.3 hPa